Main page
METAR-TAF:

METAR-TAF

Airports :

Montpellier–Méditerranée Airport

Montpellier, France

latitude: 43-35N, longitude: 003-58E, elevation: 5 m

Current weather observation

The report was made 42 minutes ago, at 03:30 UTC
Wind 9 kt from the North/Northeast
Temperature 20°C
Humidity 78%
Pressure 1017 hPa
Visibility 10 km or more
light rain

METAR: LFMT 200330Z AUTO 02009KT 9999 -RA NSC 20/16 Q1017 NOSIG

Time: 06:12 (04:12 UTC)

Forecast

The report was made 2 hours and 12 minutes ago, at 02:00 UTC
Forecast valid from 20 at 03 UTC to 21 at 03 UTC
Wind 10 kt from the North/Northeast
Visibility 10 km or more
no clouds below 1500 m and no cumulonimbus
Temporary
from 20 at 03 UTC to 20 at 06 UTC
Broken clouds at a height of 4000 ft

TAF: LFMT 200200Z 2003/2103 02010KT CAVOK TEMPO 2003/2006 BKN040

Weather observations and forecasts of more than 4000 airports (METAR and TAF reports).

The available stations are represented by yellow and red dots on the map.

Hover mouse over dot to see the name of the station.

Then click to see weather observations and forecasts.

To change the map : click on the green buttons with a black cross to zoom in, on the green button with a dash to zoom out, or on the green arrows for adjacent maps.


METAR-TAF: